createdAt,value
2023-05-08T00:00:01.410Z,25.36
2023-05-08T00:01:01.430Z,25.39
2023-05-08T00:02:01.425Z,25.39
2023-05-08T00:03:01.494Z,25.39
2023-05-08T00:04:01.537Z,25.39
2023-05-08T00:05:01.508Z,25.37
2023-05-08T00:06:01.456Z,25.40
2023-05-08T00:07:01.469Z,25.37
2023-05-08T00:08:01.557Z,25.40
2023-05-08T00:09:01.486Z,25.36
2023-05-08T00:10:01.542Z,25.36
2023-05-08T00:11:01.526Z,25.37
2023-05-08T00:12:01.549Z,25.39
2023-05-08T00:13:01.568Z,25.37
2023-05-08T00:14:01.567Z,25.39
2023-05-08T00:15:01.589Z,25.37
2023-05-08T00:16:01.624Z,25.37
2023-05-08T00:17:01.677Z,25.37
2023-05-08T00:18:01.664Z,25.34
2023-05-08T00:19:01.640Z,25.37
2023-05-08T00:20:01.648Z,25.36
2023-05-08T00:21:01.641Z,25.37
2023-05-08T00:22:01.651Z,25.36
2023-05-08T00:23:01.859Z,25.39
2023-05-08T00:24:01.680Z,25.36
2023-05-08T00:25:01.718Z,25.36
2023-05-08T00:26:01.677Z,25.36
2023-05-08T00:27:01.701Z,25.36
2023-05-08T00:28:01.694Z,25.36
2023-05-08T00:29:01.719Z,25.37
2023-05-08T00:30:01.720Z,25.39
2023-05-08T00:31:01.726Z,25.40
2023-05-08T00:32:01.741Z,25.37
2023-05-08T00:33:01.760Z,25.40
2023-05-08T00:34:01.721Z,25.36
2023-05-08T00:35:01.787Z,25.33
2023-05-08T00:36:01.767Z,25.37
2023-05-08T00:37:01.758Z,25.37
2023-05-08T00:38:01.757Z,25.36
2023-05-08T00:39:01.775Z,25.33
2023-05-08T00:40:01.767Z,25.34
2023-05-08T00:41:01.778Z,25.37
2023-05-08T00:42:01.780Z,25.36
2023-05-08T00:43:01.792Z,25.36
2023-05-08T00:44:01.808Z,25.36
2023-05-08T00:45:01.836Z,25.36
2023-05-08T00:46:01.863Z,25.36
2023-05-08T00:47:01.825Z,25.39
2023-05-08T00:48:01.871Z,25.36
2023-05-08T00:49:01.860Z,25.37
2023-05-08T00:50:01.880Z,25.34
2023-05-08T00:51:01.904Z,25.34
2023-05-08T00:52:01.913Z,25.37
2023-05-08T00:53:01.915Z,25.36
2023-05-08T00:54:01.935Z,25.37
2023-05-08T00:55:01.944Z,25.36
2023-05-08T00:56:01.946Z,25.37
2023-05-08T00:57:01.964Z,25.37
2023-05-08T00:58:01.970Z,25.34
2023-05-08T00:59:01.986Z,25.34
2023-05-08T01:00:01.996Z,25.34
2023-05-08T01:01:02.058Z,25.36
2023-05-08T01:02:02.118Z,25.34
2023-05-08T01:03:02.238Z,25.39
2023-05-08T01:04:02.040Z,25.36
2023-05-08T01:05:02.125Z,25.33
2023-05-08T01:06:02.064Z,25.34
2023-05-08T01:07:02.114Z,25.34
2023-05-08T01:08:02.104Z,25.37
2023-05-08T01:09:02.119Z,25.36
2023-05-08T01:10:02.129Z,25.34
2023-05-08T01:11:02.137Z,25.33
2023-05-08T01:12:02.141Z,25.34
2023-05-08T01:13:02.196Z,25.33
2023-05-08T01:14:02.180Z,25.34
2023-05-08T01:15:02.191Z,25.34
2023-05-08T01:16:02.228Z,25.36
2023-05-08T01:17:02.218Z,25.34
2023-05-08T01:18:02.340Z,25.33
2023-05-08T01:19:02.234Z,25.34
2023-05-08T01:20:02.249Z,25.34
2023-05-08T01:21:02.250Z,25.33
2023-05-08T01:22:02.269Z,25.34
2023-05-08T01:23:02.293Z,25.33
2023-05-08T01:24:02.296Z,25.34
2023-05-08T01:25:02.318Z,25.33
2023-05-08T01:26:02.311Z,25.33
2023-05-08T01:27:02.680Z,25.34
2023-05-08T01:28:02.331Z,25.36
2023-05-08T01:29:02.349Z,25.34
2023-05-08T01:30:02.356Z,25.33
2023-05-08T01:31:02.373Z,25.34
2023-05-08T01:32:02.389Z,25.36
2023-05-08T01:33:02.477Z,25.33
2023-05-08T01:34:02.488Z,25.33
2023-05-08T01:35:02.425Z,25.33
2023-05-08T01:36:02.447Z,25.34
2023-05-08T01:37:02.472Z,25.33
2023-05-08T01:38:02.477Z,25.33
2023-05-08T01:39:02.515Z,25.33
2023-05-08T01:40:02.509Z,25.32
2023-05-08T01:41:02.517Z,25.34
2023-05-08T01:42:02.545Z,25.33
2023-05-08T01:43:02.544Z,25.30
2023-05-08T01:44:02.560Z,25.32
2023-05-08T01:45:02.614Z,25.33
2023-05-08T01:46:02.568Z,25.32
2023-05-08T01:47:02.617Z,25.36
2023-05-08T01:48:02.628Z,25.32
2023-05-08T01:49:02.612Z,25.33
2023-05-08T01:50:02.695Z,25.33
2023-05-08T01:51:02.654Z,25.33
2023-05-08T01:52:02.708Z,25.32
2023-05-08T01:53:02.691Z,25.33
2023-05-08T01:54:02.735Z,25.32
2023-05-08T01:55:02.729Z,25.34
2023-05-08T01:56:02.728Z,25.32
2023-05-08T01:57:02.752Z,25.34
2023-05-08T01:58:02.803Z,25.33
2023-05-08T01:59:02.794Z,25.32
2023-05-08T02:00:02.819Z,25.32
2023-05-08T02:01:02.908Z,25.32
2023-05-08T02:02:03.060Z,25.30
2023-05-08T02:03:02.867Z,25.30
2023-05-08T02:04:02.894Z,25.32
2023-05-08T02:05:02.880Z,25.33
2023-05-08T02:06:02.895Z,25.30
2023-05-08T02:07:02.923Z,25.32
2023-05-08T02:08:02.924Z,25.33
2023-05-08T02:09:02.953Z,25.33
2023-05-08T02:10:02.994Z,25.32
2023-05-08T02:11:02.977Z,25.32
2023-05-08T02:12:02.995Z,25.30
2023-05-08T02:13:03.121Z,25.33
2023-05-08T02:14:03.023Z,25.33
2023-05-08T02:15:03.170Z,25.30
2023-05-08T02:16:03.096Z,25.33
2023-05-08T02:17:03.210Z,25.33
2023-05-08T02:18:03.138Z,25.30
2023-05-08T02:19:03.109Z,25.33
2023-05-08T02:20:03.148Z,25.30
2023-05-08T02:21:03.157Z,25.33
2023-05-08T02:22:03.173Z,25.29
2023-05-08T02:23:03.204Z,25.28
2023-05-08T02:24:03.216Z,25.30
2023-05-08T02:25:03.223Z,25.32
2023-05-08T02:26:03.271Z,25.29
2023-05-08T02:27:03.270Z,25.32
2023-05-08T02:28:03.293Z,25.30
2023-05-08T02:29:03.362Z,25.30
2023-05-08T02:30:03.325Z,25.30
2023-05-08T02:31:03.344Z,25.29
2023-05-08T02:32:03.406Z,25.30
2023-05-08T02:33:03.378Z,25.29
2023-05-08T02:34:03.376Z,25.30
2023-05-08T02:35:03.900Z,25.29
2023-05-08T02:36:03.406Z,25.29
2023-05-08T02:37:03.425Z,25.29
2023-05-08T02:38:03.436Z,25.29
2023-05-08T02:39:03.453Z,25.29
2023-05-08T02:40:03.470Z,25.32
2023-05-08T02:41:03.495Z,25.28
2023-05-08T02:42:03.491Z,25.30
2023-05-08T02:43:03.503Z,25.32
2023-05-08T02:44:03.536Z,25.29
2023-05-08T02:45:03.549Z,25.28
2023-05-08T02:46:03.657Z,25.29
2023-05-08T02:47:04.613Z,25.32
2023-05-08T02:48:03.637Z,25.29
2023-05-08T02:49:03.637Z,25.29
2023-05-08T02:50:03.652Z,25.32
2023-05-08T02:51:03.659Z,25.32
2023-05-08T02:52:03.682Z,25.32
2023-05-08T02:53:03.705Z,25.29
2023-05-08T02:54:03.724Z,25.29
2023-05-08T02:55:03.717Z,25.29
2023-05-08T02:56:03.742Z,25.29
2023-05-08T02:57:03.764Z,25.29
2023-05-08T02:58:03.771Z,25.28
2023-05-08T02:59:03.785Z,25.29
2023-05-08T03:00:03.803Z,25.28
2023-05-08T03:01:03.827Z,25.28
2023-05-08T03:02:03.832Z,25.29
2023-05-08T03:03:03.916Z,25.29
2023-05-08T03:04:03.861Z,25.26
2023-05-08T03:05:03.879Z,25.29
2023-05-08T03:06:03.906Z,25.29
2023-05-08T03:07:03.926Z,25.29
2023-05-08T03:08:03.937Z,25.26
2023-05-08T03:09:03.965Z,25.26
2023-05-08T03:10:04.050Z,25.30
2023-05-08T03:11:03.981Z,25.26
2023-05-08T03:12:04.011Z,25.29
2023-05-08T03:13:04.054Z,25.28
2023-05-08T03:14:04.038Z,25.26
2023-05-08T03:15:04.084Z,25.25
2023-05-08T03:16:04.131Z,25.26
2023-05-08T03:17:04.076Z,25.29
2023-05-08T03:18:04.126Z,25.28
2023-05-08T03:19:04.108Z,25.28
2023-05-08T03:20:04.135Z,25.28
2023-05-08T03:21:04.140Z,25.29
2023-05-08T03:22:04.151Z,25.26
2023-05-08T03:23:04.178Z,25.28
2023-05-08T03:24:04.194Z,25.29
2023-05-08T03:25:04.202Z,25.26
2023-05-08T03:26:04.217Z,25.25
2023-05-08T03:27:04.243Z,25.28
2023-05-08T03:28:04.255Z,25.28
2023-05-08T03:29:04.279Z,25.26
2023-05-08T03:30:04.311Z,25.28
2023-05-08T03:31:04.338Z,25.29
2023-05-08T03:32:04.324Z,25.26
2023-05-08T03:33:04.464Z,25.28
2023-05-08T03:34:04.363Z,25.26
2023-05-08T03:35:04.389Z,25.26
2023-05-08T03:36:04.404Z,25.28
2023-05-08T03:37:04.440Z,25.28
2023-05-08T03:38:04.512Z,25.26
2023-05-08T03:39:04.454Z,25.25
2023-05-08T03:40:04.501Z,25.28
2023-05-08T03:41:04.500Z,25.25
2023-05-08T03:42:04.534Z,25.26
2023-05-08T03:43:04.578Z,25.26
2023-05-08T03:44:05.555Z,25.28
2023-05-08T03:45:04.531Z,25.25
2023-05-08T03:46:04.505Z,25.29
2023-05-08T03:47:04.556Z,25.29
2023-05-08T03:48:04.514Z,25.26
2023-05-08T03:49:04.463Z,25.26
2023-05-08T03:50:04.484Z,25.26
2023-05-08T03:51:04.464Z,25.25
2023-05-08T03:52:04.433Z,25.26
2023-05-08T03:53:04.427Z,25.25
2023-05-08T03:54:04.422Z,25.26
2023-05-08T03:55:04.402Z,25.25
2023-05-08T03:56:04.397Z,25.26
2023-05-08T03:57:04.385Z,25.28
2023-05-08T03:58:04.381Z,25.28
2023-05-08T03:59:04.356Z,25.28
2023-05-08T04:00:04.365Z,25.26
2023-05-08T04:01:04.336Z,25.25
2023-05-08T04:02:04.388Z,25.26
2023-05-08T04:03:04.414Z,25.26
2023-05-08T04:04:04.517Z,25.25
2023-05-08T04:05:04.447Z,25.28
2023-05-08T04:06:04.419Z,25.23
2023-05-08T04:07:04.445Z,25.25
2023-05-08T04:08:04.452Z,25.25
2023-05-08T04:09:04.493Z,25.25
2023-05-08T04:10:04.498Z,25.25
2023-05-08T04:11:04.564Z,25.23
2023-05-08T04:12:04.545Z,25.25
2023-05-08T04:13:04.670Z,25.26
2023-05-08T04:14:04.570Z,25.25
2023-05-08T04:15:04.646Z,25.25
2023-05-08T04:16:04.603Z,25.23
2023-05-08T04:17:04.683Z,25.25
2023-05-08T04:18:04.670Z,25.25
2023-05-08T04:19:04.631Z,25.26
2023-05-08T04:20:04.655Z,25.25
2023-05-08T04:21:04.661Z,25.25
2023-05-08T04:22:04.665Z,25.23
2023-05-08T04:23:04.685Z,25.25
2023-05-08T04:24:04.683Z,25.25
2023-05-08T04:25:04.702Z,25.25
2023-05-08T04:26:05.611Z,25.23
2023-05-08T04:27:04.742Z,25.25
2023-05-08T04:28:04.752Z,25.25
2023-05-08T04:29:04.764Z,25.25
2023-05-08T04:30:04.793Z,25.25
2023-05-08T04:31:04.809Z,25.25
2023-05-08T04:32:04.855Z,25.25
2023-05-08T04:33:04.849Z,25.22
2023-05-08T04:34:04.879Z,25.26
2023-05-08T04:35:04.881Z,25.25
2023-05-08T04:36:04.886Z,25.22
2023-05-08T04:37:04.913Z,25.23
2023-05-08T04:38:04.932Z,25.26
2023-05-08T04:39:04.948Z,25.23
2023-05-08T04:40:04.972Z,25.22
2023-05-08T04:41:05.012Z,25.26
2023-05-08T04:42:05.008Z,25.23
2023-05-08T04:43:05.022Z,25.23
2023-05-08T04:44:05.041Z,25.25
2023-05-08T04:45:05.095Z,25.23
2023-05-08T04:46:05.175Z,25.23
2023-05-08T04:47:05.112Z,25.23
2023-05-08T04:48:05.174Z,25.23
2023-05-08T04:49:05.162Z,25.23
2023-05-08T04:50:05.191Z,25.23
2023-05-08T04:51:05.202Z,25.23
2023-05-08T04:52:05.241Z,25.23
2023-05-08T04:53:05.254Z,25.21
2023-05-08T04:54:05.282Z,25.25
2023-05-08T04:55:05.305Z,25.23
2023-05-08T04:56:05.324Z,25.23
2023-05-08T04:57:05.341Z,25.22
2023-05-08T04:58:05.377Z,25.25
2023-05-08T04:59:05.402Z,25.25
2023-05-08T05:00:05.422Z,25.23
2023-05-08T05:01:05.448Z,25.23
2023-05-08T05:02:05.604Z,25.22
2023-05-08T05:03:05.615Z,25.26
2023-05-08T05:04:05.579Z,25.23
2023-05-08T05:05:05.572Z,25.23
2023-05-08T05:06:05.586Z,25.23
2023-05-08T05:07:05.620Z,25.23
2023-05-08T05:08:05.655Z,25.23
2023-05-08T05:09:05.663Z,25.25
2023-05-08T05:10:05.664Z,25.23
2023-05-08T05:11:05.684Z,25.23
2023-05-08T05:12:05.697Z,25.23
2023-05-08T05:13:05.732Z,25.22
2023-05-08T05:14:05.732Z,25.23
2023-05-08T05:15:05.740Z,25.23
2023-05-08T05:16:05.799Z,25.23
2023-05-08T05:17:05.777Z,25.23
2023-05-08T05:18:05.877Z,25.22
2023-05-08T05:19:05.814Z,25.23
2023-05-08T05:20:05.877Z,25.25
2023-05-08T05:21:05.884Z,25.22
2023-05-08T05:22:05.894Z,25.22
2023-05-08T05:23:05.928Z,25.22
2023-05-08T05:24:05.957Z,25.23
2023-05-08T05:25:05.972Z,25.25
2023-05-08T05:26:05.985Z,25.26
2023-05-08T05:27:06.010Z,25.26
2023-05-08T05:28:06.034Z,25.25
2023-05-08T05:29:06.063Z,25.23
2023-05-08T05:30:06.111Z,25.32
2023-05-08T05:31:06.139Z,25.32
2023-05-08T05:32:06.118Z,25.34
2023-05-08T05:33:06.164Z,25.33
2023-05-08T05:34:07.124Z,25.36
2023-05-08T05:35:06.771Z,25.34
2023-05-08T05:36:06.110Z,25.36
2023-05-08T05:37:06.081Z,25.34
2023-05-08T05:38:06.078Z,25.37
2023-05-08T05:39:06.081Z,25.34
2023-05-08T05:40:06.108Z,25.34
2023-05-08T05:41:06.092Z,25.33
2023-05-08T05:42:06.044Z,25.32
2023-05-08T05:43:06.066Z,25.33
2023-05-08T05:44:06.022Z,25.32
2023-05-08T05:45:06.001Z,25.32
2023-05-08T05:46:06.034Z,25.32
2023-05-08T05:47:06.047Z,25.32
2023-05-08T05:48:06.029Z,25.32
2023-05-08T05:49:05.976Z,25.32
2023-05-08T05:50:05.955Z,25.32
2023-05-08T05:51:05.946Z,25.30
2023-05-08T05:52:05.941Z,25.29
2023-05-08T05:53:05.990Z,25.30
2023-05-08T05:54:05.916Z,25.29
2023-05-08T05:55:05.905Z,25.26
2023-05-08T05:56:05.924Z,25.28
2023-05-08T05:57:05.948Z,25.29
2023-05-08T05:58:05.972Z,25.28
2023-05-08T05:59:05.997Z,25.28
2023-05-08T06:00:06.006Z,25.28
2023-05-08T06:01:06.028Z,25.26
2023-05-08T06:02:06.225Z,25.28
2023-05-08T06:03:06.139Z,25.28
2023-05-08T06:04:06.167Z,25.28
2023-05-08T06:05:06.114Z,25.25
2023-05-08T06:06:06.175Z,25.26
2023-05-08T06:07:06.167Z,25.29
2023-05-08T06:08:06.187Z,25.26
2023-05-08T06:09:06.209Z,25.29
2023-05-08T06:10:06.240Z,25.29
2023-05-08T06:11:06.260Z,25.28
2023-05-08T06:12:06.288Z,25.28
2023-05-08T06:13:06.381Z,25.26
2023-05-08T06:14:06.351Z,25.29
2023-05-08T06:15:06.365Z,25.23
2023-05-08T06:16:06.375Z,25.26
2023-05-08T06:17:06.473Z,25.25
2023-05-08T06:18:06.461Z,25.26
2023-05-08T06:19:06.476Z,25.26
2023-05-08T06:20:06.500Z,25.25
2023-05-08T06:21:06.515Z,25.26
2023-05-08T06:22:06.542Z,25.25
2023-05-08T06:23:08.211Z,25.26
2023-05-08T06:24:06.599Z,25.26
2023-05-08T06:25:06.627Z,25.30
2023-05-08T06:26:06.644Z,25.30
2023-05-08T06:27:06.652Z,25.37
2023-05-08T06:28:06.740Z,25.21
2023-05-08T06:29:06.819Z,24.96
2023-05-08T06:30:06.796Z,24.64
2023-05-08T06:31:06.861Z,24.21
2023-05-08T06:32:06.884Z,23.93
2023-05-08T06:33:06.939Z,23.44
2023-05-08T06:34:06.978Z,23.17
2023-05-08T06:35:07.059Z,22.92
2023-05-08T06:36:07.793Z,22.79
2023-05-08T06:37:07.238Z,22.85
2023-05-08T06:38:07.372Z,22.88
2023-05-08T06:39:07.392Z,22.90
2023-05-08T06:41:07.447Z,23.10
2023-05-08T06:42:08.111Z,23.18
2023-05-08T06:43:07.481Z,23.30
2023-05-08T06:44:07.490Z,23.41
2023-05-08T06:45:08.302Z,23.58
2023-05-08T06:46:07.521Z,23.71
2023-05-08T06:47:07.592Z,23.85
2023-05-08T06:48:07.601Z,23.99
2023-05-08T06:49:07.532Z,24.13
2023-05-08T06:50:07.519Z,24.24
2023-05-08T06:51:07.518Z,24.37
2023-05-08T06:52:07.520Z,24.50
2023-05-08T06:53:07.520Z,24.58
2023-05-08T06:54:07.516Z,24.71
2023-05-08T06:55:07.518Z,24.78
2023-05-08T06:56:07.510Z,24.88
2023-05-08T06:57:07.512Z,24.95
2023-05-08T06:58:07.489Z,25.05
2023-05-08T06:59:09.124Z,25.16
2023-05-08T07:00:07.482Z,25.19
2023-05-08T07:01:07.483Z,25.30
2023-05-08T07:02:07.514Z,25.34
2023-05-08T07:03:07.591Z,25.37
2023-05-08T07:04:07.462Z,25.42
2023-05-08T07:05:07.446Z,25.50
2023-05-08T07:06:07.408Z,25.56
2023-05-08T07:07:07.385Z,25.60
2023-05-08T07:08:07.370Z,25.63
2023-05-08T07:09:07.363Z,25.69
2023-05-08T07:10:08.002Z,25.71
2023-05-08T07:11:07.321Z,25.76
2023-05-08T07:12:07.310Z,25.77
2023-05-08T07:13:07.373Z,25.85
2023-05-08T07:14:07.320Z,25.84
2023-05-08T07:15:17.719Z,25.88
2023-05-08T07:16:08.278Z,25.88
2023-05-08T07:17:07.235Z,25.91
2023-05-08T07:18:07.284Z,25.95
2023-05-08T07:19:07.310Z,25.95
2023-05-08T07:20:07.192Z,25.95
2023-05-08T07:21:07.196Z,25.98
2023-05-08T07:22:07.194Z,25.98
2023-05-08T07:23:07.217Z,25.97
2023-05-08T07:24:07.116Z,25.97
2023-05-08T07:25:07.099Z,25.91
2023-05-08T07:26:07.082Z,25.94
2023-05-08T07:27:07.050Z,25.92
2023-05-08T07:28:07.064Z,25.91
2023-05-08T07:29:07.054Z,25.91
2023-05-08T07:30:07.049Z,25.91
2023-05-08T07:31:07.151Z,25.89
2023-05-08T07:32:07.081Z,25.87
2023-05-08T07:33:07.130Z,25.88
2023-05-08T07:34:08.048Z,25.87
2023-05-08T07:35:08.981Z,25.87
2023-05-08T07:36:06.983Z,25.87
2023-05-08T07:37:06.961Z,25.84
2023-05-08T07:38:06.948Z,25.84
2023-05-08T07:39:06.923Z,25.84
2023-05-08T07:40:06.906Z,25.85
2023-05-08T07:41:06.887Z,25.84
2023-05-08T07:42:06.855Z,25.87
2023-05-08T07:43:06.841Z,25.83
2023-05-08T07:44:06.814Z,25.84
2023-05-08T07:45:06.795Z,25.83
2023-05-08T07:46:06.828Z,25.83
2023-05-08T07:47:06.838Z,25.83
2023-05-08T07:48:06.763Z,25.81
2023-05-08T07:49:06.707Z,25.83
2023-05-08T07:50:06.704Z,25.84
2023-05-08T07:51:06.671Z,25.83
2023-05-08T07:52:06.657Z,25.83
2023-05-08T07:53:06.642Z,25.85
2023-05-08T07:54:06.616Z,25.83
2023-05-08T07:55:06.587Z,25.83
2023-05-08T07:56:06.579Z,25.84
2023-05-08T07:57:06.568Z,25.84
2023-05-08T07:58:06.552Z,25.83
2023-05-08T07:59:06.625Z,25.83
2023-05-08T08:00:06.515Z,25.84
2023-05-08T08:01:06.719Z,25.85
2023-05-08T08:02:06.510Z,25.84
2023-05-08T08:03:06.509Z,25.87
2023-05-08T08:04:06.513Z,25.85
2023-05-08T08:05:07.430Z,25.84
2023-05-08T08:06:06.492Z,25.85
2023-05-08T08:07:06.432Z,25.87
2023-05-08T08:08:06.371Z,25.88
2023-05-08T08:09:06.477Z,25.89
2023-05-08T08:10:07.347Z,25.88
2023-05-08T08:11:06.367Z,25.85
2023-05-08T08:12:06.283Z,25.87
2023-05-08T08:13:06.272Z,25.85
2023-05-08T08:14:06.257Z,25.91
2023-05-08T08:15:06.221Z,25.88
2023-05-08T08:16:06.221Z,25.85
2023-05-08T08:17:06.247Z,25.87
2023-05-08T08:18:06.229Z,25.89
2023-05-08T08:19:06.166Z,25.89
2023-05-08T08:20:06.154Z,25.89
2023-05-08T08:21:06.160Z,25.91
2023-05-08T08:22:06.194Z,25.92
2023-05-08T08:23:06.229Z,25.92
2023-05-08T08:24:06.168Z,25.91
2023-05-08T08:25:06.151Z,25.92
2023-05-08T08:26:06.156Z,25.94
2023-05-08T08:27:06.182Z,25.92
2023-05-08T08:28:06.233Z,25.97
2023-05-08T08:29:06.250Z,25.95
2023-05-08T08:30:16.799Z,25.91
2023-05-08T08:31:07.279Z,25.94
2023-05-08T08:32:06.223Z,25.94
2023-05-08T08:33:06.351Z,25.91
2023-05-08T08:34:06.187Z,25.91
2023-05-08T08:35:06.162Z,25.91
2023-05-08T08:36:06.134Z,25.91
2023-05-08T08:37:06.120Z,25.89
2023-05-08T08:38:06.100Z,25.91
2023-05-08T08:39:06.161Z,25.88
2023-05-08T08:40:06.077Z,25.87
2023-05-08T08:41:06.053Z,25.88
2023-05-08T08:42:06.049Z,25.87
2023-05-08T08:43:06.026Z,25.85
2023-05-08T08:44:06.063Z,25.87
2023-05-08T08:45:06.061Z,25.84
2023-05-08T08:46:06.100Z,25.85
2023-05-08T08:47:06.100Z,25.84
2023-05-08T08:48:06.124Z,25.81
2023-05-08T08:49:06.098Z,25.84
2023-05-08T08:50:06.118Z,25.83
2023-05-08T08:51:06.144Z,25.83
2023-05-08T08:52:06.152Z,25.83
2023-05-08T08:53:06.168Z,25.83
2023-05-08T08:54:06.153Z,25.83
2023-05-08T08:55:06.295Z,25.81
2023-05-08T08:56:06.209Z,25.81
2023-05-08T08:57:06.219Z,25.80
2023-05-08T08:58:06.205Z,25.80
2023-05-08T08:59:06.234Z,25.83
2023-05-08T09:00:06.222Z,25.80
2023-05-08T09:01:06.217Z,25.80
2023-05-08T09:02:06.298Z,25.80
2023-05-08T09:03:06.353Z,25.78
2023-05-08T09:04:06.383Z,25.80
2023-05-08T09:05:06.283Z,25.77
2023-05-08T09:06:06.292Z,25.80
2023-05-08T09:07:06.318Z,25.80
2023-05-08T09:08:06.296Z,25.80
2023-05-08T09:09:06.307Z,25.78
2023-05-08T09:10:07.286Z,25.78
2023-05-08T09:11:06.353Z,25.80
2023-05-08T09:12:06.243Z,25.77
2023-05-08T09:13:06.266Z,25.78
2023-05-08T09:14:07.291Z,25.77
2023-05-08T09:15:06.192Z,25.78
2023-05-08T09:16:06.228Z,25.78
2023-05-08T09:17:06.166Z,25.78
2023-05-08T09:18:06.165Z,25.78
2023-05-08T09:19:06.137Z,25.74
2023-05-08T09:20:06.120Z,25.76
2023-05-08T09:21:06.108Z,25.73
2023-05-08T09:22:06.096Z,25.74
2023-05-08T09:23:06.127Z,25.73
2023-05-08T09:24:06.161Z,25.73
2023-05-08T09:25:06.185Z,25.74
2023-05-08T09:26:06.233Z,25.73
2023-05-08T09:27:06.347Z,25.74
2023-05-08T09:28:06.272Z,25.76
2023-05-08T09:29:06.280Z,25.73
2023-05-08T09:30:06.339Z,25.73
2023-05-08T09:31:06.333Z,25.71
2023-05-08T09:32:06.367Z,25.71
2023-05-08T09:33:06.945Z,25.70
2023-05-08T09:34:06.349Z,25.69
2023-05-08T09:35:06.421Z,25.73
2023-05-08T09:36:06.411Z,25.71
2023-05-08T09:37:06.431Z,25.73
2023-05-08T09:38:06.445Z,25.71
2023-05-08T09:39:06.438Z,25.70
2023-05-08T09:40:06.443Z,25.69
2023-05-08T09:41:06.436Z,25.69
2023-05-08T09:42:06.461Z,25.69
2023-05-08T09:43:06.536Z,25.66
2023-05-08T09:44:06.436Z,25.66
2023-05-08T09:45:06.426Z,25.66
2023-05-08T09:46:06.477Z,25.64
2023-05-08T09:47:06.417Z,25.63
2023-05-08T09:48:06.493Z,25.63
2023-05-08T09:49:07.440Z,25.64
2023-05-08T09:50:06.429Z,25.63
2023-05-08T09:51:06.432Z,25.63
2023-05-08T09:52:06.443Z,25.63
2023-05-08T09:53:06.439Z,25.63
2023-05-08T09:54:06.424Z,25.61
2023-05-08T09:55:06.420Z,25.61
2023-05-08T09:56:06.416Z,25.61
2023-05-08T09:57:06.416Z,25.61
2023-05-08T09:58:06.448Z,25.61
2023-05-08T09:59:06.511Z,25.61
2023-05-08T10:00:06.441Z,25.61
2023-05-08T10:01:06.452Z,25.59
2023-05-08T10:02:06.447Z,25.59
2023-05-08T10:03:06.488Z,25.60
2023-05-08T10:04:06.564Z,25.60
2023-05-08T10:05:06.437Z,25.61
2023-05-08T10:06:06.406Z,25.57
2023-05-08T10:07:06.411Z,25.59
2023-05-08T10:08:06.406Z,25.60
2023-05-08T10:09:06.415Z,25.60
2023-05-08T10:10:06.463Z,25.59
2023-05-08T10:11:06.427Z,25.60
2023-05-08T10:12:06.443Z,25.57
2023-05-08T10:13:06.468Z,25.61
2023-05-08T10:14:06.430Z,25.63
2023-05-08T10:15:06.537Z,25.66
2023-05-08T10:16:06.414Z,25.69
2023-05-08T10:17:06.467Z,25.74
2023-05-08T10:18:06.555Z,25.78
2023-05-08T10:19:06.564Z,25.80
2023-05-08T10:20:06.524Z,25.80
2023-05-08T10:21:06.578Z,25.85
2023-05-08T10:22:06.639Z,25.87
2023-05-08T10:23:06.688Z,25.91
2023-05-08T10:24:06.729Z,25.95
2023-05-08T10:25:06.787Z,25.99
2023-05-08T10:26:06.831Z,26.04
2023-05-08T10:27:07.995Z,26.05
2023-05-08T10:28:06.918Z,26.07
2023-05-08T10:29:06.931Z,26.14
2023-05-08T10:30:06.958Z,26.15
2023-05-08T10:31:07.003Z,26.18
2023-05-08T10:32:07.020Z,26.19
2023-05-08T10:33:07.056Z,26.21
2023-05-08T10:34:07.064Z,26.22
2023-05-08T10:35:08.033Z,26.28
2023-05-08T10:36:07.020Z,26.26
2023-05-08T10:37:06.990Z,26.29
2023-05-08T10:38:07.054Z,26.31
2023-05-08T10:39:06.945Z,26.35
2023-05-08T10:40:06.927Z,26.35
2023-05-08T10:41:06.900Z,26.38
2023-05-08T10:42:06.894Z,26.39
2023-05-08T10:43:06.857Z,26.42
2023-05-08T10:44:06.829Z,26.40
2023-05-08T10:45:06.856Z,26.45
2023-05-08T10:46:06.857Z,26.46
2023-05-08T10:47:06.849Z,26.46
2023-05-08T10:48:06.819Z,26.49
2023-05-08T10:49:06.733Z,26.50
2023-05-08T10:50:06.737Z,26.50
2023-05-08T10:51:06.736Z,26.54
2023-05-08T10:52:06.742Z,26.54
2023-05-08T10:53:06.738Z,26.59
2023-05-08T10:54:06.730Z,26.57
2023-05-08T10:55:06.718Z,26.62
2023-05-08T10:56:06.741Z,26.62
2023-05-08T10:57:06.738Z,26.60
2023-05-08T10:58:06.671Z,26.66
2023-05-08T10:59:06.664Z,26.64
2023-05-08T11:00:06.612Z,26.66
2023-05-08T11:01:07.433Z,26.69
2023-05-08T11:02:06.592Z,26.69
2023-05-08T11:03:14.122Z,26.72
2023-05-08T11:04:07.642Z,26.69
2023-05-08T11:05:06.470Z,26.67
2023-05-08T11:06:06.451Z,26.70
2023-05-08T11:07:06.420Z,26.70
2023-05-08T11:08:06.395Z,26.73
2023-05-08T11:09:06.358Z,26.72
2023-05-08T11:10:06.360Z,26.72
2023-05-08T11:11:06.400Z,26.69
2023-05-08T11:12:06.284Z,26.69
2023-05-08T11:13:06.273Z,26.70
2023-05-08T11:14:06.220Z,26.69
2023-05-08T11:15:06.938Z,26.66
2023-05-08T11:16:07.414Z,26.66
2023-05-08T11:17:06.386Z,26.63
2023-05-08T11:18:06.514Z,26.62
2023-05-08T11:19:06.402Z,26.59
2023-05-08T11:20:06.383Z,26.57
2023-05-08T11:21:06.383Z,26.56
2023-05-08T11:22:06.381Z,26.54
2023-05-08T11:23:06.380Z,26.56
2023-05-08T11:24:06.395Z,26.53
2023-05-08T11:25:06.394Z,26.50
2023-05-08T11:26:06.437Z,26.49
2023-05-08T11:27:06.382Z,26.47
2023-05-08T11:28:06.402Z,26.47
2023-05-08T11:29:06.467Z,26.46
2023-05-08T11:30:06.399Z,26.42
2023-05-08T11:31:06.504Z,26.43
2023-05-08T11:32:06.475Z,26.42
2023-05-08T11:33:06.555Z,26.39
2023-05-08T11:34:07.428Z,26.38
2023-05-08T11:35:06.407Z,26.35
2023-05-08T11:36:06.386Z,26.36
2023-05-08T11:37:06.362Z,26.34
2023-05-08T11:38:06.343Z,26.32
2023-05-08T11:39:06.331Z,26.31
2023-05-08T11:40:06.284Z,26.31
2023-05-08T11:41:06.326Z,26.26
2023-05-08T11:42:06.259Z,26.28
2023-05-08T11:43:06.216Z,26.29
2023-05-08T11:44:06.200Z,26.28
2023-05-08T11:45:06.160Z,26.26
2023-05-08T11:46:06.183Z,26.24
2023-05-08T11:47:06.207Z,26.26
2023-05-08T11:48:06.223Z,26.22
2023-05-08T11:49:06.195Z,26.24
2023-05-08T11:50:06.231Z,26.22
2023-05-08T11:51:06.249Z,26.24
2023-05-08T11:52:06.275Z,26.24
2023-05-08T11:53:06.344Z,26.24
2023-05-08T11:54:06.352Z,26.22
2023-05-08T11:55:06.374Z,26.19
2023-05-08T11:56:06.439Z,26.19
2023-05-08T11:57:06.451Z,26.21
2023-05-08T11:58:06.474Z,26.19
2023-05-08T11:59:06.499Z,26.18
2023-05-08T12:00:06.527Z,26.16
2023-05-08T12:01:06.636Z,26.18
2023-05-08T12:02:09.200Z,26.16
2023-05-08T12:03:07.571Z,26.16
2023-05-08T12:04:06.677Z,26.15
2023-05-08T12:05:06.630Z,26.16
2023-05-08T12:06:06.507Z,26.16
2023-05-08T12:07:06.468Z,26.15
2023-05-08T12:08:06.448Z,26.14
2023-05-08T12:09:06.429Z,26.12
2023-05-08T12:10:06.391Z,26.15
2023-05-08T12:11:06.372Z,26.11
2023-05-08T12:12:06.350Z,26.11
2023-05-08T12:13:06.359Z,26.11
2023-05-08T12:14:06.299Z,26.12
2023-05-08T12:15:06.284Z,26.09
2023-05-08T12:16:06.252Z,26.08
2023-05-08T12:17:06.260Z,26.11
2023-05-08T12:18:06.274Z,26.09
2023-05-08T12:19:06.183Z,26.08
2023-05-08T12:20:06.163Z,26.07
2023-05-08T12:21:06.149Z,26.09
2023-05-08T12:22:06.148Z,26.08
2023-05-08T12:23:06.115Z,26.09
2023-05-08T12:24:06.095Z,26.08
2023-05-08T12:25:06.133Z,26.05
2023-05-08T12:26:06.167Z,26.08
2023-05-08T12:27:06.211Z,26.07
2023-05-08T12:28:06.256Z,26.07
2023-05-08T12:29:06.305Z,26.07
2023-05-08T12:30:06.348Z,26.08
2023-05-08T12:31:06.409Z,26.07
2023-05-08T12:32:06.415Z,26.05
2023-05-08T12:33:06.548Z,26.05
2023-05-08T12:34:06.511Z,26.04
2023-05-08T12:35:06.543Z,26.04
2023-05-08T12:36:06.597Z,26.02
2023-05-08T12:37:06.642Z,26.04
2023-05-08T12:38:06.654Z,26.04
2023-05-08T12:39:06.794Z,26.01
2023-05-08T12:40:06.727Z,26.02
2023-05-08T12:41:06.766Z,26.01
2023-05-08T12:42:06.828Z,26.02
2023-05-08T12:43:06.862Z,26.04
2023-05-08T12:44:06.901Z,26.01
2023-05-08T12:45:06.948Z,26.01
2023-05-08T12:46:06.993Z,26.02
2023-05-08T12:47:07.044Z,26.02
2023-05-08T12:48:07.111Z,26.01
2023-05-08T12:49:07.120Z,26.02
2023-05-08T12:50:07.152Z,26.01
2023-05-08T12:51:07.231Z,26.02
2023-05-08T12:52:07.236Z,25.99
2023-05-08T12:53:07.300Z,25.99